sensor_id;sensor_type;location;lat;lon;timestamp;temperature;humidity
34279;DHT22;20538;51.528;9.942;2024-03-06T00:02:11;6.20;99.90
34279;DHT22;20538;51.528;9.942;2024-03-06T00:04:37;6.20;99.90
34279;DHT22;20538;51.528;9.942;2024-03-06T00:07:03;6.20;99.90
34279;DHT22;20538;51.528;9.942;2024-03-06T00:09:29;6.20;99.90
34279;DHT22;20538;51.528;9.942;2024-03-06T00:11:55;6.20;99.90
34279;DHT22;20538;51.528;9.942;2024-03-06T00:14:22;6.20;99.90
34279;DHT22;20538;51.528;9.942;2024-03-06T00:16:48;6.20;99.90
34279;DHT22;20538;51.528;9.942;2024-03-06T00:19:17;6.20;99.90
34279;DHT22;20538;51.528;9.942;2024-03-06T00:21:43;6.20;99.90
34279;DHT22;20538;51.528;9.942;2024-03-06T00:24:14;6.20;99.90
34279;DHT22;20538;51.528;9.942;2024-03-06T00:26:44;6.20;99.90
34279;DHT22;20538;51.528;9.942;2024-03-06T00:29:10;6.20;99.90
34279;DHT22;20538;51.528;9.942;2024-03-06T00:31:36;6.20;99.90
34279;DHT22;20538;51.528;9.942;2024-03-06T00:34:02;6.20;99.90
34279;DHT22;20538;51.528;9.942;2024-03-06T00:36:28;6.20;99.90
34279;DHT22;20538;51.528;9.942;2024-03-06T00:38:53;6.20;99.90
34279;DHT22;20538;51.528;9.942;2024-03-06T00:41:19;6.20;99.90
34279;DHT22;20538;51.528;9.942;2024-03-06T00:43:45;6.20;99.90
34279;DHT22;20538;51.528;9.942;2024-03-06T00:46:11;6.20;99.90
34279;DHT22;20538;51.528;9.942;2024-03-06T00:48:37;6.20;99.90
34279;DHT22;20538;51.528;9.942;2024-03-06T00:51:05;6.10;99.90
34279;DHT22;20538;51.528;9.942;2024-03-06T00:53:32;6.10;99.90
34279;DHT22;20538;51.528;9.942;2024-03-06T00:55:57;6.10;99.90
34279;DHT22;20538;51.528;9.942;2024-03-06T00:58:23;6.10;99.90
34279;DHT22;20538;51.528;9.942;2024-03-06T01:00:48;6.10;99.90
34279;DHT22;20538;51.528;9.942;2024-03-06T01:03:14;6.10;99.90
34279;DHT22;20538;51.528;9.942;2024-03-06T01:05:40;6.20;99.90
34279;DHT22;20538;51.528;9.942;2024-03-06T01:08:05;6.10;99.90
34279;DHT22;20538;51.528;9.942;2024-03-06T01:10:31;6.20;99.90
34279;DHT22;20538;51.528;9.942;2024-03-06T01:12:57;6.20;99.90
34279;DHT22;20538;51.528;9.942;2024-03-06T01:15:22;6.20;99.90
34279;DHT22;20538;51.528;9.942;2024-03-06T01:17:48;6.20;99.90
34279;DHT22;20538;51.528;9.942;2024-03-06T01:20:14;6.20;99.90
34279;DHT22;20538;51.528;9.942;2024-03-06T01:22:40;6.20;99.90
34279;DHT22;20538;51.528;9.942;2024-03-06T01:25:06;6.20;99.90
34279;DHT22;20538;51.528;9.942;2024-03-06T01:27:32;6.20;99.90
34279;DHT22;20538;51.528;9.942;2024-03-06T01:29:58;6.20;99.90
34279;DHT22;20538;51.528;9.942;2024-03-06T01:32:23;6.20;99.90
34279;DHT22;20538;51.528;9.942;2024-03-06T01:34:49;6.20;99.90
34279;DHT22;20538;51.528;9.942;2024-03-06T01:37:15;6.10;99.90
34279;DHT22;20538;51.528;9.942;2024-03-06T01:39:40;6.10;99.90
34279;DHT22;20538;51.528;9.942;2024-03-06T01:42:06;6.10;99.90
34279;DHT22;20538;51.528;9.942;2024-03-06T01:44:32;6.00;99.90
34279;DHT22;20538;51.528;9.942;2024-03-06T01:46:57;6.10;99.90
34279;DHT22;20538;51.528;9.942;2024-03-06T01:49:23;6.10;99.90
34279;DHT22;20538;51.528;9.942;2024-03-06T01:51:53;6.10;99.90
34279;DHT22;20538;51.528;9.942;2024-03-06T01:54:19;6.00;99.90
34279;DHT22;20538;51.528;9.942;2024-03-06T01:56:46;6.10;99.90
34279;DHT22;20538;51.528;9.942;2024-03-06T01:59:13;6.00;99.90
34279;DHT22;20538;51.528;9.942;2024-03-06T02:01:40;6.00;99.90
34279;DHT22;20538;51.528;9.942;2024-03-06T02:04:09;6.00;99.90
34279;DHT22;20538;51.528;9.942;2024-03-06T02:06:38;6.00;99.90
34279;DHT22;20538;51.528;9.942;2024-03-06T02:09:04;6.00;99.90
34279;DHT22;20538;51.528;9.942;2024-03-06T02:11:30;6.10;99.90
34279;DHT22;20538;51.528;9.942;2024-03-06T02:13:56;6.20;99.90
34279;DHT22;20538;51.528;9.942;2024-03-06T02:16:21;6.10;99.90
34279;DHT22;20538;51.528;9.942;2024-03-06T02:18:54;6.10;99.90
34279;DHT22;20538;51.528;9.942;2024-03-06T02:21:21;6.10;99.90
34279;DHT22;20538;51.528;9.942;2024-03-06T02:23:47;6.10;99.90
34279;DHT22;20538;51.528;9.942;2024-03-06T02:26:14;6.20;99.90
34279;DHT22;20538;51.528;9.942;2024-03-06T02:28:39;6.20;99.90
34279;DHT22;20538;51.528;9.942;2024-03-06T02:31:11;6.20;99.90
34279;DHT22;20538;51.528;9.942;2024-03-06T02:33:37;6.20;99.90
34279;DHT22;20538;51.528;9.942;2024-03-06T02:36:02;6.20;99.90
34279;DHT22;20538;51.528;9.942;2024-03-06T02:38:28;6.20;99.90
34279;DHT22;20538;51.528;9.942;2024-03-06T02:40:53;6.20;99.90
34279;DHT22;20538;51.528;9.942;2024-03-06T02:43:19;6.30;99.90
34279;DHT22;20538;51.528;9.942;2024-03-06T02:45:45;6.20;99.90
34279;DHT22;20538;51.528;9.942;2024-03-06T02:48:10;6.20;99.90
34279;DHT22;20538;51.528;9.942;2024-03-06T02:50:36;6.30;99.90
34279;DHT22;20538;51.528;9.942;2024-03-06T02:53:02;6.30;99.90
34279;DHT22;20538;51.528;9.942;2024-03-06T02:55:28;6.30;99.90
34279;DHT22;20538;51.528;9.942;2024-03-06T02:57:53;6.30;99.90
34279;DHT22;20538;51.528;9.942;2024-03-06T03:00:19;6.30;99.90
34279;DHT22;20538;51.528;9.942;2024-03-06T03:02:45;6.30;99.90
34279;DHT22;20538;51.528;9.942;2024-03-06T03:05:10;6.30;99.90
34279;DHT22;20538;51.528;9.942;2024-03-06T03:07:36;6.20;99.90
34279;DHT22;20538;51.528;9.942;2024-03-06T03:10:01;6.20;99.90
34279;DHT22;20538;51.528;9.942;2024-03-06T03:12:27;6.20;99.90
34279;DHT22;20538;51.528;9.942;2024-03-06T03:14:53;6.30;99.90
34279;DHT22;20538;51.528;9.942;2024-03-06T03:17:19;6.30;99.90
34279;DHT22;20538;51.528;9.942;2024-03-06T03:19:47;6.20;99.90
34279;DHT22;20538;51.528;9.942;2024-03-06T03:22:13;6.30;99.90
34279;DHT22;20538;51.528;9.942;2024-03-06T03:24:41;6.20;99.90
34279;DHT22;20538;51.528;9.942;2024-03-06T03:27:06;6.20;99.90
34279;DHT22;20538;51.528;9.942;2024-03-06T03:29:33;6.30;99.90
34279;DHT22;20538;51.528;9.942;2024-03-06T03:31:58;6.30;99.90
34279;DHT22;20538;51.528;9.942;2024-03-06T03:34:24;6.20;99.90
34279;DHT22;20538;51.528;9.942;2024-03-06T03:36:50;6.30;99.90
34279;DHT22;20538;51.528;9.942;2024-03-06T03:39:15;6.30;99.90
34279;DHT22;20538;51.528;9.942;2024-03-06T03:41:48;6.30;99.90
34279;DHT22;20538;51.528;9.942;2024-03-06T03:44:14;6.30;99.90
34279;DHT22;20538;51.528;9.942;2024-03-06T03:46:41;6.30;99.90
34279;DHT22;20538;51.528;9.942;2024-03-06T03:49:06;6.20;99.90
34279;DHT22;20538;51.528;9.942;2024-03-06T03:51:32;6.20;99.90
34279;DHT22;20538;51.528;9.942;2024-03-06T03:53:57;6.30;99.90
34279;DHT22;20538;51.528;9.942;2024-03-06T03:56:23;6.20;99.90
34279;DHT22;20538;51.528;9.942;2024-03-06T03:58:49;6.30;99.90
34279;DHT22;20538;51.528;9.942;2024-03-06T04:01:14;6.30;99.90
34279;DHT22;20538;51.528;9.942;2024-03-06T04:03:40;6.30;99.90
34279;DHT22;20538;51.528;9.942;2024-03-06T04:06:08;6.30;99.90
34279;DHT22;20538;51.528;9.942;2024-03-06T04:08:34;6.30;99.90
34279;DHT22;20538;51.528;9.942;2024-03-06T04:10:59;6.30;99.90
34279;DHT22;20538;51.528;9.942;2024-03-06T04:13:25;6.30;99.90
34279;DHT22;20538;51.528;9.942;2024-03-06T04:15:51;6.30;99.90
34279;DHT22;20538;51.528;9.942;2024-03-06T04:18:16;6.30;99.90
34279;DHT22;20538;51.528;9.942;2024-03-06T04:20:42;6.30;99.90
34279;DHT22;20538;51.528;9.942;2024-03-06T04:23:07;6.30;99.90
34279;DHT22;20538;51.528;9.942;2024-03-06T04:25:33;6.20;99.90
34279;DHT22;20538;51.528;9.942;2024-03-06T04:27:59;6.30;99.90
34279;DHT22;20538;51.528;9.942;2024-03-06T04:30:24;6.20;99.90
34279;DHT22;20538;51.528;9.942;2024-03-06T04:32:50;6.30;99.90
34279;DHT22;20538;51.528;9.942;2024-03-06T04:35:16;6.20;99.90
34279;DHT22;20538;51.528;9.942;2024-03-06T04:37:41;6.30;99.90
34279;DHT22;20538;51.528;9.942;2024-03-06T04:40:07;6.30;99.90
34279;DHT22;20538;51.528;9.942;2024-03-06T04:42:36;6.30;99.90
34279;DHT22;20538;51.528;9.942;2024-03-06T04:45:03;6.30;99.90
34279;DHT22;20538;51.528;9.942;2024-03-06T04:47:29;6.30;99.90
34279;DHT22;20538;51.528;9.942;2024-03-06T04:49:55;6.30;99.90
34279;DHT22;20538;51.528;9.942;2024-03-06T04:52:20;6.30;99.90
34279;DHT22;20538;51.528;9.942;2024-03-06T04:54:46;6.30;99.90
34279;DHT22;20538;51.528;9.942;2024-03-06T04:57:12;6.30;99.90
34279;DHT22;20538;51.528;9.942;2024-03-06T04:59:37;6.30;99.90
34279;DHT22;20538;51.528;9.942;2024-03-06T05:02:03;6.30;99.90
34279;DHT22;20538;51.528;9.942;2024-03-06T05:04:29;6.30;99.90
34279;DHT22;20538;51.528;9.942;2024-03-06T05:06:54;6.30;99.90
34279;DHT22;20538;51.528;9.942;2024-03-06T05:09:21;6.30;99.90
34279;DHT22;20538;51.528;9.942;2024-03-06T05:11:46;6.30;99.90
34279;DHT22;20538;51.528;9.942;2024-03-06T05:14:16;6.30;99.90
34279;DHT22;20538;51.528;9.942;2024-03-06T05:16:41;6.30;99.90
34279;DHT22;20538;51.528;9.942;2024-03-06T05:19:07;6.30;99.90
34279;DHT22;20538;51.528;9.942;2024-03-06T05:21:33;6.30;99.90
34279;DHT22;20538;51.528;9.942;2024-03-06T05:24:00;6.30;99.90
34279;DHT22;20538;51.528;9.942;2024-03-06T05:26:26;6.20;99.90
34279;DHT22;20538;51.528;9.942;2024-03-06T05:28:51;6.20;99.90
34279;DHT22;20538;51.528;9.942;2024-03-06T05:31:18;6.20;99.90
34279;DHT22;20538;51.528;9.942;2024-03-06T05:33:46;6.20;99.90
34279;DHT22;20538;51.528;9.942;2024-03-06T05:36:12;6.20;99.90
34279;DHT22;20538;51.528;9.942;2024-03-06T05:38:41;6.10;99.90
34279;DHT22;20538;51.528;9.942;2024-03-06T05:41:07;6.10;99.90
34279;DHT22;20538;51.528;9.942;2024-03-06T05:43:34;6.20;99.90
34279;DHT22;20538;51.528;9.942;2024-03-06T05:45:59;6.20;99.90
34279;DHT22;20538;51.528;9.942;2024-03-06T05:48:26;6.20;99.90
34279;DHT22;20538;51.528;9.942;2024-03-06T05:50:52;6.20;99.90
34279;DHT22;20538;51.528;9.942;2024-03-06T05:53:18;6.20;99.90
34279;DHT22;20538;51.528;9.942;2024-03-06T05:55:44;6.20;99.90
34279;DHT22;20538;51.528;9.942;2024-03-06T05:58:09;6.20;99.90
34279;DHT22;20538;51.528;9.942;2024-03-06T06:00:35;6.20;99.90
34279;DHT22;20538;51.528;9.942;2024-03-06T06:03:01;6.20;99.90
34279;DHT22;20538;51.528;9.942;2024-03-06T06:05:27;6.30;99.90
34279;DHT22;20538;51.528;9.942;2024-03-06T06:07:52;6.30;99.90
34279;DHT22;20538;51.528;9.942;2024-03-06T06:10:18;6.30;99.90
34279;DHT22;20538;51.528;9.942;2024-03-06T06:12:44;6.30;99.90
34279;DHT22;20538;51.528;9.942;2024-03-06T06:15:10;6.30;99.90
34279;DHT22;20538;51.528;9.942;2024-03-06T06:17:36;6.30;99.90
34279;DHT22;20538;51.528;9.942;2024-03-06T06:20:06;6.30;99.90
34279;DHT22;20538;51.528;9.942;2024-03-06T06:22:38;6.30;99.90
34279;DHT22;20538;51.528;9.942;2024-03-06T06:25:03;6.30;99.90
34279;DHT22;20538;51.528;9.942;2024-03-06T06:27:29;6.30;99.90
34279;DHT22;20538;51.528;9.942;2024-03-06T06:29:55;6.40;99.90
34279;DHT22;20538;51.528;9.942;2024-03-06T06:32:21;6.40;99.90
34279;DHT22;20538;51.528;9.942;2024-03-06T06:34:46;6.40;99.90
34279;DHT22;20538;51.528;9.942;2024-03-06T06:37:12;6.50;99.90
34279;DHT22;20538;51.528;9.942;2024-03-06T06:39:38;6.50;99.90
34279;DHT22;20538;51.528;9.942;2024-03-06T06:42:03;6.40;99.90
34279;DHT22;20538;51.528;9.942;2024-03-06T06:44:29;6.40;99.90
34279;DHT22;20538;51.528;9.942;2024-03-06T06:46:55;6.40;99.90
34279;DHT22;20538;51.528;9.942;2024-03-06T06:49:21;6.50;99.90
34279;DHT22;20538;51.528;9.942;2024-03-06T06:51:47;6.50;99.90
34279;DHT22;20538;51.528;9.942;2024-03-06T06:54:14;6.50;99.90
34279;DHT22;20538;51.528;9.942;2024-03-06T06:56:40;6.40;99.90
34279;DHT22;20538;51.528;9.942;2024-03-06T06:59:05;6.30;99.90
34279;DHT22;20538;51.528;9.942;2024-03-06T07:01:31;6.40;99.90
34279;DHT22;20538;51.528;9.942;2024-03-06T07:03:58;6.50;99.90
34279;DHT22;20538;51.528;9.942;2024-03-06T07:06:24;6.50;99.90
34279;DHT22;20538;51.528;9.942;2024-03-06T07:08:50;6.60;99.90
34279;DHT22;20538;51.528;9.942;2024-03-06T07:11:17;6.60;99.90
34279;DHT22;20538;51.528;9.942;2024-03-06T07:13:43;6.60;99.90
34279;DHT22;20538;51.528;9.942;2024-03-06T07:16:09;6.50;99.90
34279;DHT22;20538;51.528;9.942;2024-03-06T07:18:35;6.50;99.90
34279;DHT22;20538;51.528;9.942;2024-03-06T07:21:00;6.40;99.90
34279;DHT22;20538;51.528;9.942;2024-03-06T07:23:26;6.30;99.90
34279;DHT22;20538;51.528;9.942;2024-03-06T07:25:52;6.20;99.90
34279;DHT22;20538;51.528;9.942;2024-03-06T07:28:17;6.20;99.90
34279;DHT22;20538;51.528;9.942;2024-03-06T07:30:43;6.10;99.90
34279;DHT22;20538;51.528;9.942;2024-03-06T07:33:09;6.00;99.90
34279;DHT22;20538;51.528;9.942;2024-03-06T07:35:34;6.10;99.90
34279;DHT22;20538;51.528;9.942;2024-03-06T07:38:02;6.10;99.90
34279;DHT22;20538;51.528;9.942;2024-03-06T07:40:30;6.10;99.90
34279;DHT22;20538;51.528;9.942;2024-03-06T07:42:56;6.20;99.90
34279;DHT22;20538;51.528;9.942;2024-03-06T07:45:22;6.20;99.90
34279;DHT22;20538;51.528;9.942;2024-03-06T07:47:47;6.40;99.90
34279;DHT22;20538;51.528;9.942;2024-03-06T07:50:13;6.60;99.90
34279;DHT22;20538;51.528;9.942;2024-03-06T07:52:44;6.70;99.90
34279;DHT22;20538;51.528;9.942;2024-03-06T07:55:10;6.80;99.90
34279;DHT22;20538;51.528;9.942;2024-03-06T07:57:36;6.80;99.90
34279;DHT22;20538;51.528;9.942;2024-03-06T08:00:02;6.90;99.90
34279;DHT22;20538;51.528;9.942;2024-03-06T08:02:33;6.90;99.90
34279;DHT22;20538;51.528;9.942;2024-03-06T08:05:00;7.00;99.90
34279;DHT22;20538;51.528;9.942;2024-03-06T08:07:26;7.10;99.90
34279;DHT22;20538;51.528;9.942;2024-03-06T08:09:52;7.10;99.90
34279;DHT22;20538;51.528;9.942;2024-03-06T08:12:17;7.10;99.90
34279;DHT22;20538;51.528;9.942;2024-03-06T08:14:43;7.10;99.90
34279;DHT22;20538;51.528;9.942;2024-03-06T08:17:09;7.10;99.90
34279;DHT22;20538;51.528;9.942;2024-03-06T08:19:34;7.20;99.90
34279;DHT22;20538;51.528;9.942;2024-03-06T08:22:00;7.20;99.90
34279;DHT22;20538;51.528;9.942;2024-03-06T08:24:26;7.20;99.90
34279;DHT22;20538;51.528;9.942;2024-03-06T08:26:52;7.20;99.90
34279;DHT22;20538;51.528;9.942;2024-03-06T08:29:18;7.30;99.90
34279;DHT22;20538;51.528;9.942;2024-03-06T08:31:43;7.30;99.90
34279;DHT22;20538;51.528;9.942;2024-03-06T08:34:09;7.40;99.90
34279;DHT22;20538;51.528;9.942;2024-03-06T08:36:34;7.40;99.90
34279;DHT22;20538;51.528;9.942;2024-03-06T08:39:00;7.30;99.90
34279;DHT22;20538;51.528;9.942;2024-03-06T08:41:26;7.30;99.90
34279;DHT22;20538;51.528;9.942;2024-03-06T08:43:51;7.30;99.90
34279;DHT22;20538;51.528;9.942;2024-03-06T08:46:17;7.30;99.90
34279;DHT22;20538;51.528;9.942;2024-03-06T08:48:43;7.40;99.90
34279;DHT22;20538;51.528;9.942;2024-03-06T08:51:08;7.50;99.90
34279;DHT22;20538;51.528;9.942;2024-03-06T08:53:37;7.40;99.90
34279;DHT22;20538;51.528;9.942;2024-03-06T08:56:04;7.50;99.90
34279;DHT22;20538;51.528;9.942;2024-03-06T08:58:30;7.50;99.90
34279;DHT22;20538;51.528;9.942;2024-03-06T09:00:55;7.40;99.90
34279;DHT22;20538;51.528;9.942;2024-03-06T09:03:21;7.40;99.90
34279;DHT22;20538;51.528;9.942;2024-03-06T09:05:46;7.30;99.90
34279;DHT22;20538;51.528;9.942;2024-03-06T09:08:12;7.20;99.90
34279;DHT22;20538;51.528;9.942;2024-03-06T09:10:38;7.20;99.90
34279;DHT22;20538;51.528;9.942;2024-03-06T09:13:03;7.30;99.90
34279;DHT22;20538;51.528;9.942;2024-03-06T09:15:29;7.20;99.90
34279;DHT22;20538;51.528;9.942;2024-03-06T09:17:55;7.10;99.90
34279;DHT22;20538;51.528;9.942;2024-03-06T09:20:20;7.10;99.90
34279;DHT22;20538;51.528;9.942;2024-03-06T09:22:48;7.30;99.90
34279;DHT22;20538;51.528;9.942;2024-03-06T09:25:14;7.10;99.90
34279;DHT22;20538;51.528;9.942;2024-03-06T09:27:40;7.20;99.90
34279;DHT22;20538;51.528;9.942;2024-03-06T09:30:07;7.20;99.90
34279;DHT22;20538;51.528;9.942;2024-03-06T09:32:37;7.40;99.90
34279;DHT22;20538;51.528;9.942;2024-03-06T09:35:06;7.70;99.90
34279;DHT22;20538;51.528;9.942;2024-03-06T09:37:32;7.60;99.90
34279;DHT22;20538;51.528;9.942;2024-03-06T09:39:57;7.40;99.90
34279;DHT22;20538;51.528;9.942;2024-03-06T09:42:23;7.30;99.90
34279;DHT22;20538;51.528;9.942;2024-03-06T09:44:49;7.20;99.90
34279;DHT22;20538;51.528;9.942;2024-03-06T09:47:14;7.30;99.90
34279;DHT22;20538;51.528;9.942;2024-03-06T09:49:46;7.50;99.90
34279;DHT22;20538;51.528;9.942;2024-03-06T09:52:12;7.20;99.90
34279;DHT22;20538;51.528;9.942;2024-03-06T09:54:37;7.40;99.90
34279;DHT22;20538;51.528;9.942;2024-03-06T09:57:06;7.50;99.90
34279;DHT22;20538;51.528;9.942;2024-03-06T09:59:32;7.60;99.90
34279;DHT22;20538;51.528;9.942;2024-03-06T10:02:00;7.90;99.90
34279;DHT22;20538;51.528;9.942;2024-03-06T10:04:28;7.70;99.90
34279;DHT22;20538;51.528;9.942;2024-03-06T10:06:56;7.90;99.90
34279;DHT22;20538;51.528;9.942;2024-03-06T10:09:21;7.90;99.90
34279;DHT22;20538;51.528;9.942;2024-03-06T10:11:47;8.30;99.90
34279;DHT22;20538;51.528;9.942;2024-03-06T10:14:14;8.60;99.90
34279;DHT22;20538;51.528;9.942;2024-03-06T10:16:53;8.80;99.90
34279;DHT22;20538;51.528;9.942;2024-03-06T10:19:19;8.50;99.90
34279;DHT22;20538;51.528;9.942;2024-03-06T10:21:49;8.60;99.90
34279;DHT22;20538;51.528;9.942;2024-03-06T10:24:29;8.40;99.90
34279;DHT22;20538;51.528;9.942;2024-03-06T10:26:55;8.40;99.90
34279;DHT22;20538;51.528;9.942;2024-03-06T10:29:24;8.60;99.90
34279;DHT22;20538;51.528;9.942;2024-03-06T10:31:54;8.80;99.90
34279;DHT22;20538;51.528;9.942;2024-03-06T10:34:29;8.70;99.90
34279;DHT22;20538;51.528;9.942;2024-03-06T10:36:56;8.70;99.90
34279;DHT22;20538;51.528;9.942;2024-03-06T10:39:23;8.40;99.90
34279;DHT22;20538;51.528;9.942;2024-03-06T10:41:52;8.60;99.90
34279;DHT22;20538;51.528;9.942;2024-03-06T10:44:26;8.90;99.90
34279;DHT22;20538;51.528;9.942;2024-03-06T10:47:03;9.20;99.90
34279;DHT22;20538;51.528;9.942;2024-03-06T10:49:30;8.70;99.90
34279;DHT22;20538;51.528;9.942;2024-03-06T10:52:04;9.00;99.90
34279;DHT22;20538;51.528;9.942;2024-03-06T10:54:34;9.30;99.90
34279;DHT22;20538;51.528;9.942;2024-03-06T10:57:08;9.50;99.90
34279;DHT22;20538;51.528;9.942;2024-03-06T10:59:35;9.80;99.90
34279;DHT22;20538;51.528;9.942;2024-03-06T11:02:01;9.80;99.90
34279;DHT22;20538;51.528;9.942;2024-03-06T11:04:28;9.50;99.90
34279;DHT22;20538;51.528;9.942;2024-03-06T11:06:55;9.70;99.90
34279;DHT22;20538;51.528;9.942;2024-03-06T11:09:21;9.80;99.90
34279;DHT22;20538;51.528;9.942;2024-03-06T11:11:50;9.50;99.90
34279;DHT22;20538;51.528;9.942;2024-03-06T11:14:23;8.70;99.90
34279;DHT22;20538;51.528;9.942;2024-03-06T11:17:03;8.60;99.90
34279;DHT22;20538;51.528;9.942;2024-03-06T11:19:30;8.90;99.90
34279;DHT22;20538;51.528;9.942;2024-03-06T11:21:56;8.70;99.90
34279;DHT22;20538;51.528;9.942;2024-03-06T11:24:23;8.90;99.90
34279;DHT22;20538;51.528;9.942;2024-03-06T11:26:52;8.90;99.90
34279;DHT22;20538;51.528;9.942;2024-03-06T11:29:21;9.00;99.90
34279;DHT22;20538;51.528;9.942;2024-03-06T11:32:07;9.20;99.90
34279;DHT22;20538;51.528;9.942;2024-03-06T11:34:36;9.10;99.90
34279;DHT22;20538;51.528;9.942;2024-03-06T11:37:07;9.20;99.90
34279;DHT22;20538;51.528;9.942;2024-03-06T11:39:38;8.70;99.90
34279;DHT22;20538;51.528;9.942;2024-03-06T11:42:04;9.10;99.90
34279;DHT22;20538;51.528;9.942;2024-03-06T11:44:34;9.20;99.90
34279;DHT22;20538;51.528;9.942;2024-03-06T11:47:08;9.20;99.90
34279;DHT22;20538;51.528;9.942;2024-03-06T11:49:36;9.10;99.90
34279;DHT22;20538;51.528;9.942;2024-03-06T11:52:12;9.30;99.90
34279;DHT22;20538;51.528;9.942;2024-03-06T11:54:37;9.60;99.90
34279;DHT22;20538;51.528;9.942;2024-03-06T11:57:04;9.40;99.90
34279;DHT22;20538;51.528;9.942;2024-03-06T11:59:36;9.60;99.90
34279;DHT22;20538;51.528;9.942;2024-03-06T12:02:05;9.60;99.90
34279;DHT22;20538;51.528;9.942;2024-03-06T12:04:32;9.10;99.90
34279;DHT22;20538;51.528;9.942;2024-03-06T12:07:00;8.80;99.90
34279;DHT22;20538;51.528;9.942;2024-03-06T12:09:30;8.80;99.90
34279;DHT22;20538;51.528;9.942;2024-03-06T12:11:56;8.90;99.90
34279;DHT22;20538;51.528;9.942;2024-03-06T12:14:25;8.90;99.90
34279;DHT22;20538;51.528;9.942;2024-03-06T12:16:59;9.00;99.90
34279;DHT22;20538;51.528;9.942;2024-03-06T12:19:31;9.00;99.90
34279;DHT22;20538;51.528;9.942;2024-03-06T12:22:00;9.20;99.90
34279;DHT22;20538;51.528;9.942;2024-03-06T12:24:26;9.30;99.90
34279;DHT22;20538;51.528;9.942;2024-03-06T12:27:07;9.10;99.90
34279;DHT22;20538;51.528;9.942;2024-03-06T12:29:34;9.20;99.90
34279;DHT22;20538;51.528;9.942;2024-03-06T12:32:00;9.50;99.90
34279;DHT22;20538;51.528;9.942;2024-03-06T12:34:27;10.00;99.90
34279;DHT22;20538;51.528;9.942;2024-03-06T12:36:52;10.40;99.90
34279;DHT22;20538;51.528;9.942;2024-03-06T12:39:18;9.90;99.90
34279;DHT22;20538;51.528;9.942;2024-03-06T12:41:47;10.00;99.90
34279;DHT22;20538;51.528;9.942;2024-03-06T12:44:13;9.80;99.90
34279;DHT22;20538;51.528;9.942;2024-03-06T12:46:38;9.40;99.90
34279;DHT22;20538;51.528;9.942;2024-03-06T12:49:04;9.40;99.90
34279;DHT22;20538;51.528;9.942;2024-03-06T12:51:30;9.40;99.90
34279;DHT22;20538;51.528;9.942;2024-03-06T12:53:55;9.80;99.90
34279;DHT22;20538;51.528;9.942;2024-03-06T12:56:21;9.80;99.90
34279;DHT22;20538;51.528;9.942;2024-03-06T12:58:46;9.80;99.90
34279;DHT22;20538;51.528;9.942;2024-03-06T13:01:12;9.40;99.90
34279;DHT22;20538;51.528;9.942;2024-03-06T13:03:38;9.40;99.90
34279;DHT22;20538;51.528;9.942;2024-03-06T13:06:04;9.40;99.90
34279;DHT22;20538;51.528;9.942;2024-03-06T13:08:33;9.60;99.90
34279;DHT22;20538;51.528;9.942;2024-03-06T13:10:58;9.90;99.90
34279;DHT22;20538;51.528;9.942;2024-03-06T13:13:25;9.80;99.90
34279;DHT22;20538;51.528;9.942;2024-03-06T13:15:51;9.80;99.90
34279;DHT22;20538;51.528;9.942;2024-03-06T13:18:17;9.70;99.90
34279;DHT22;20538;51.528;9.942;2024-03-06T13:20:43;9.50;99.90
34279;DHT22;20538;51.528;9.942;2024-03-06T13:23:09;9.70;99.90
34279;DHT22;20538;51.528;9.942;2024-03-06T13:25:35;9.80;99.90
34279;DHT22;20538;51.528;9.942;2024-03-06T13:28:01;9.90;99.90
34279;DHT22;20538;51.528;9.942;2024-03-06T13:30:27;9.90;99.90
34279;DHT22;20538;51.528;9.942;2024-03-06T13:32:53;9.80;99.90
34279;DHT22;20538;51.528;9.942;2024-03-06T13:35:20;9.90;99.90
34279;DHT22;20538;51.528;9.942;2024-03-06T13:37:45;9.90;99.90
34279;DHT22;20538;51.528;9.942;2024-03-06T13:40:12;9.60;99.90
34279;DHT22;20538;51.528;9.942;2024-03-06T13:42:39;9.60;99.90
34279;DHT22;20538;51.528;9.942;2024-03-06T13:45:06;9.80;99.90
34279;DHT22;20538;51.528;9.942;2024-03-06T13:47:37;9.60;99.90
34279;DHT22;20538;51.528;9.942;2024-03-06T13:50:03;9.30;99.90
34279;DHT22;20538;51.528;9.942;2024-03-06T13:52:29;9.20;99.90
34279;DHT22;20538;51.528;9.942;2024-03-06T13:54:55;9.20;99.90
34279;DHT22;20538;51.528;9.942;2024-03-06T13:57:21;9.50;99.90
34279;DHT22;20538;51.528;9.942;2024-03-06T13:59:46;9.60;99.90
34279;DHT22;20538;51.528;9.942;2024-03-06T14:02:12;9.60;99.90
34279;DHT22;20538;51.528;9.942;2024-03-06T14:04:37;9.50;99.90
34279;DHT22;20538;51.528;9.942;2024-03-06T14:07:03;9.60;99.90
34279;DHT22;20538;51.528;9.942;2024-03-06T14:09:29;9.40;99.90
34279;DHT22;20538;51.528;9.942;2024-03-06T14:11:55;9.60;99.90
34279;DHT22;20538;51.528;9.942;2024-03-06T14:14:21;9.70;99.90
34279;DHT22;20538;51.528;9.942;2024-03-06T14:16:47;9.90;99.90
34279;DHT22;20538;51.528;9.942;2024-03-06T14:19:13;10.00;99.90
34279;DHT22;20538;51.528;9.942;2024-03-06T14:21:39;10.20;99.90
34279;DHT22;20538;51.528;9.942;2024-03-06T14:24:05;10.10;99.90
34279;DHT22;20538;51.528;9.942;2024-03-06T14:26:34;10.20;99.90
34279;DHT22;20538;51.528;9.942;2024-03-06T14:29:01;10.30;99.90
34279;DHT22;20538;51.528;9.942;2024-03-06T14:31:27;10.50;99.90
34279;DHT22;20538;51.528;9.942;2024-03-06T14:33:53;10.50;99.90
34279;DHT22;20538;51.528;9.942;2024-03-06T14:36:19;10.30;99.90
34279;DHT22;20538;51.528;9.942;2024-03-06T14:38:47;10.10;99.90
34279;DHT22;20538;51.528;9.942;2024-03-06T14:41:13;10.00;99.90
34279;DHT22;20538;51.528;9.942;2024-03-06T14:43:38;10.00;99.90
34279;DHT22;20538;51.528;9.942;2024-03-06T14:46:05;9.90;99.90
34279;DHT22;20538;51.528;9.942;2024-03-06T14:48:32;10.00;99.90
34279;DHT22;20538;51.528;9.942;2024-03-06T14:50:57;9.70;99.90
34279;DHT22;20538;51.528;9.942;2024-03-06T14:53:23;9.50;99.90
34279;DHT22;20538;51.528;9.942;2024-03-06T14:55:49;9.60;99.90
34279;DHT22;20538;51.528;9.942;2024-03-06T14:58:15;9.60;99.90
34279;DHT22;20538;51.528;9.942;2024-03-06T15:00:40;9.70;99.90
34279;DHT22;20538;51.528;9.942;2024-03-06T15:03:06;9.70;99.90
34279;DHT22;20538;51.528;9.942;2024-03-06T15:05:33;9.80;99.90
34279;DHT22;20538;51.528;9.942;2024-03-06T15:07:59;9.70;99.90
34279;DHT22;20538;51.528;9.942;2024-03-06T15:10:25;9.80;99.90
34279;DHT22;20538;51.528;9.942;2024-03-06T15:12:51;9.80;99.90
34279;DHT22;20538;51.528;9.942;2024-03-06T15:15:16;9.90;99.90
34279;DHT22;20538;51.528;9.942;2024-03-06T15:17:42;9.80;99.90
34279;DHT22;20538;51.528;9.942;2024-03-06T15:20:10;9.80;99.90
34279;DHT22;20538;51.528;9.942;2024-03-06T15:22:37;9.80;99.90
34279;DHT22;20538;51.528;9.942;2024-03-06T15:25:08;9.90;99.90
34279;DHT22;20538;51.528;9.942;2024-03-06T15:27:34;9.90;99.90
34279;DHT22;20538;51.528;9.942;2024-03-06T15:30:01;9.80;99.90
34279;DHT22;20538;51.528;9.942;2024-03-06T15:32:28;9.70;99.90
34279;DHT22;20538;51.528;9.942;2024-03-06T15:34:53;9.70;99.90
34279;DHT22;20538;51.528;9.942;2024-03-06T15:37:22;9.60;99.90
34279;DHT22;20538;51.528;9.942;2024-03-06T15:39:51;9.60;99.90
34279;DHT22;20538;51.528;9.942;2024-03-06T15:42:17;9.60;99.90